Time;durP1;ratioP1;P1;durP2;ratioP2;P2;SDS_P1;SDS_P2;PMS_P1;PMS_P2;Temp;Humidity;BMP_temperature;BMP_pressure;BME280_temperature;BME280_humidity;BME280_pressure;Samples;Min_cycle;Max_cycle;Signal;HPM_P1;HPM_P2
2023/09/15 00:00:44;;;;;;;4.80;4.70;;;;;;;12.64;82.27;101755.81;4898314;29;20630;-67
2023/09/15 00:03:11;;;;;;;4.30;4.10;;;;;;;12.58;82.45;101756.38;4897505;29;20731;-67
2023/09/15 00:05:38;;;;;;;4.90;4.57;;;;;;;12.56;82.66;101756.50;4898351;29;20197;-67
2023/09/15 00:08:05;;;;;;;4.03;3.90;;;;;;;12.55;82.94;101748.59;4898577;29;20248;-67
2023/09/15 00:10:38;;;;;;;4.83;4.63;;;;;;;12.53;83.05;101756.78;4898483;29;20224;-67
2023/09/15 00:13:05;;;;;;;4.30;4.20;;;;;;;12.51;83.05;101756.09;4898347;29;20540;-67
2023/09/15 00:15:32;;;;;;;5.20;4.70;;;;;;;12.49;83.26;101758.03;4898056;29;20559;-67
2023/09/15 00:17:59;;;;;;;3.93;3.83;;;;;;;12.49;82.86;101758.03;4898040;29;20200;-67
2023/09/15 00:20:25;;;;;;;4.50;4.40;;;;;;;12.45;83.12;101745.91;4897906;29;20260;-67
2023/09/15 00:22:53;;;;;;;4.93;4.83;;;;;;;12.43;83.43;101753.25;4898531;29;20617;-67
2023/09/15 00:25:26;;;;;;;5.27;4.87;;;;;;;12.40;83.41;101750.81;4897970;29;20180;-67
2023/09/15 00:27:57;;;;;;;5.23;4.73;;;;;;;12.38;83.40;101747.47;4897945;29;20245;-67
2023/09/15 00:30:26;;;;;;;4.90;4.70;;;;;;;12.36;83.55;101744.91;4898070;29;20592;-67
2023/09/15 00:32:53;;;;;;;4.83;4.73;;;;;;;12.34;83.62;101746.03;4898203;29;20236;-67
2023/09/15 00:35:22;;;;;;;5.87;4.80;;;;;;;12.34;83.77;101746.03;4898469;29;20569;-67
2023/09/15 00:37:51;;;;;;;5.53;5.10;;;;;;;12.34;83.71;101749.56;4896614;29;20205;-67
2023/09/15 00:40:19;;;;;;;4.13;3.77;;;;;;;12.32;83.94;101743.47;4897760;29;20256;-67
2023/09/15 00:42:47;;;;;;;4.27;4.17;;;;;;;12.34;83.91;101738.00;4897697;29;20237;-67
2023/09/15 00:45:18;;;;;;;3.63;3.63;;;;;;;12.32;83.91;101743.47;4896527;29;20212;-67
2023/09/15 00:47:50;;;;;;;10.43;5.20;;;;;;;12.31;83.59;101732.88;4898295;29;20626;-67
2023/09/15 00:50:21;;;;;;;5.30;5.17;;;;;;;12.25;83.73;101739.66;4897805;29;20217;-67
2023/09/15 00:53:04;;;;;;;5.07;4.57;;;;;;;12.22;83.67;101736.41;4898301;29;20180;-67
2023/09/15 00:55:34;;;;;;;4.37;4.07;;;;;;;12.22;84.20;101734.56;4898271;29;20272;-67
2023/09/15 00:58:04;;;;;;;4.60;4.40;;;;;;;12.22;83.96;101731.06;4897989;29;20189;-67
2023/09/15 01:00:31;;;;;;;7.40;4.50;;;;;;;12.25;84.24;101728.09;4897566;29;20788;-67
2023/09/15 01:02:59;;;;;;;4.33;4.23;;;;;;;12.25;84.16;101728.09;4897917;29;20729;-67
2023/09/15 01:05:25;;;;;;;3.73;3.67;;;;;;;12.26;83.99;101727.13;4897623;29;20221;-67
2023/09/15 01:07:53;;;;;;;4.57;4.20;;;;;;;12.26;84.11;101722.56;4896352;29;20253;-67
2023/09/15 01:10:22;;;;;;;4.50;4.23;;;;;;;12.25;84.31;101717.38;4897823;29;20220;-67
2023/09/15 01:12:50;;;;;;;4.10;3.53;;;;;;;12.24;84.23;101721.88;4898114;29;20211;-67
2023/09/15 01:15:18;;;;;;;4.50;4.20;;;;;;;12.23;84.28;101717.50;4901145;29;20202;-67
2023/09/15 01:18:13;;;;;;;4.00;3.90;;;;;;;12.21;84.14;101715.94;4899675;29;20193;-67
2023/09/15 01:20:42;;;;;;;6.23;4.17;;;;;;;12.19;84.44;101707.19;4900843;29;20220;-68
2023/09/15 01:23:42;;;;;;;3.97;3.87;;;;;;;12.14;84.12;101704.06;4900812;29;20608;-68
2023/09/15 01:26:20;;;;;;;3.40;3.40;;;;;;;12.11;84.38;101702.50;4900885;29;20256;-68
2023/09/15 01:29:03;;;;;;;4.30;4.10;;;;;;;12.02;84.27;101700.66;4900493;29;20201;-67
2023/09/15 01:31:30;;;;;;;7.60;4.53;;;;;;;11.98;84.34;101699.22;4899295;29;20276;-67
2023/09/15 01:33:56;;;;;;;4.40;4.30;;;;;;;11.95;84.58;101704.03;4900051;29;20205;-67
2023/09/15 01:36:24;;;;;;;4.70;4.37;;;;;;;11.93;84.55;101700.63;4899516;29;20196;-67
2023/09/15 01:38:51;;;;;;;5.90;4.93;;;;;;;11.90;84.33;101694.56;4900315;29;20366;-67
2023/09/15 01:41:17;;;;;;;5.20;4.90;;;;;;;11.87;85.02;101699.34;4900491;29;20692;-68
2023/09/15 01:43:43;;;;;;;4.80;4.60;;;;;;;11.87;84.84;101691.31;4900471;29;20189;-68
2023/09/15 01:46:10;;;;;;;4.67;4.33;;;;;;;11.87;84.93;101692.16;4900271;29;20204;-68
2023/09/15 01:48:37;;;;;;;4.50;4.40;;;;;;;11.88;85.16;101687.66;4898997;29;20657;-67
2023/09/15 01:51:04;;;;;;;4.57;4.47;;;;;;;11.90;85.09;101694.56;4900010;29;20216;-67
2023/09/15 01:53:33;;;;;;;6.63;4.53;;;;;;;11.92;84.99;101702.47;4900128;29;20193;-67
2023/09/15 01:55:59;;;;;;;4.00;3.90;;;;;;;11.90;85.22;101705.28;4900401;29;20681;-67
2023/09/15 01:58:26;;;;;;;4.97;4.67;;;;;;;11.86;85.23;101701.19;4898791;29;20197;-67
2023/09/15 02:00:52;;;;;;;4.40;4.30;;;;;;;11.84;85.05;101705.81;4898682;29;20220;-67
2023/09/15 02:03:19;;;;;;;6.17;5.67;;;;;;;11.81;85.13;101706.09;4899920;29;20192;-67
2023/09/15 02:05:45;;;;;;;5.43;5.07;;;;;;;11.81;84.93;101711.44;4899926;29;20192;-67
2023/09/15 02:08:12;;;;;;;5.30;5.00;;;;;;;11.80;85.27;101707.06;4900144;29;20192;-67
2023/09/15 02:10:38;;;;;;;12.93;5.30;;;;;;;11.77;85.28;101712.72;4899659;29;20224;-67
2023/09/15 02:13:05;;;;;;;5.33;5.10;;;;;;;11.76;85.07;101711.00;4900278;29;20189;-67
2023/09/15 02:15:32;;;;;;;12.77;4.67;;;;;;;11.73;85.38;101710.44;4898487;29;20240;-68
2023/09/15 02:17:59;;;;;;;4.90;4.70;;;;;;;11.72;85.26;101712.25;4898462;29;20569;-67
2023/09/15 02:20:26;;;;;;;5.23;4.97;;;;;;;11.71;85.10;101705.16;4898347;29;20220;-68
2023/09/15 02:22:53;;;;;;;5.97;5.70;;;;;;;11.68;85.59;101701.91;4898352;29;20200;-67
2023/09/15 02:25:19;;;;;;;6.43;5.90;;;;;;;11.66;85.47;101699.38;4899201;29;20185;-67
2023/09/15 02:27:46;;;;;;;6.03;5.63;;;;;;;11.59;85.58;101695.53;4898244;29;20262;-67
2023/09/15 02:30:12;;;;;;;5.13;5.00;;;;;;;11.55;85.46;101702.13;4898077;29;20224;-67
2023/09/15 02:32:39;;;;;;;8.53;5.57;;;;;;;11.55;85.58;101688.75;4898168;29;20204;-67
2023/09/15 02:35:06;;;;;;;5.73;5.47;;;;;;;11.54;85.90;101694.25;4899615;29;20192;-67
2023/09/15 02:37:34;;;;;;;6.40;5.57;;;;;;;11.50;86.07;101687.47;4898097;29;20318;-67
2023/09/15 02:40:00;;;;;;;5.67;5.47;;;;;;;11.51;85.78;101694.50;4898198;29;20279;-67
2023/09/15 02:42:27;;;;;;;5.80;5.50;;;;;;;11.50;86.10;101690.16;4897945;29;20681;-67
2023/09/15 02:44:53;;;;;;;5.97;5.63;;;;;;;11.46;85.95;101676.16;4898803;29;20201;-67
2023/09/15 02:47:20;;;;;;;4.93;4.60;;;;;;;11.45;86.10;101686.06;4897912;29;20252;-67
2023/09/15 02:49:46;;;;;;;5.27;5.10;;;;;;;11.45;86.20;101687.88;4897695;29;20228;-67
2023/09/15 02:52:13;;;;;;;7.47;5.93;;;;;;;11.45;86.27;101685.19;4899296;29;20196;-67
2023/09/15 02:54:41;;;;;;;5.60;5.10;;;;;;;11.46;86.38;101685.03;4898793;29;20546;-67
2023/09/15 02:57:07;;;;;;;6.40;5.93;;;;;;;11.47;86.22;101685.91;4897712;29;20215;-67
2023/09/15 02:59:34;;;;;;;5.67;5.50;;;;;;;11.47;86.30;101680.53;4898817;29;20241;-68
2023/09/15 03:02:00;;;;;;;5.63;5.00;;;;;;;11.46;86.28;101681.50;4898400;29;20597;-67
2023/09/15 03:04:28;;;;;;;6.60;6.20;;;;;;;11.42;86.44;101680.09;4897581;29;20574;-67
2023/09/15 03:06:55;;;;;;;5.30;5.00;;;;;;;11.44;86.28;101680.81;4897550;29;20260;-67
2023/09/15 03:09:22;;;;;;;8.77;5.07;;;;;;;11.45;86.42;101677.16;4897325;29;20227;-68
2023/09/15 03:11:48;;;;;;;6.63;6.13;;;;;;;11.42;86.39;101675.59;4898948;29;20197;-68
2023/09/15 03:14:16;;;;;;;4.93;4.80;;;;;;;11.40;86.44;101679.38;4897381;29;20204;-68
2023/09/15 03:16:43;;;;;;;5.37;5.03;;;;;;;11.39;86.50;101673.19;4897319;29;20193;-68
2023/09/15 03:19:10;;;;;;;5.23;5.13;;;;;;;11.38;86.34;101678.66;4898584;29;20275;-67
2023/09/15 03:21:38;;;;;;;4.80;4.43;;;;;;;11.36;86.54;101669.94;4897505;29;20251;-67
2023/09/15 03:24:06;;;;;;;4.97;4.77;;;;;;;11.35;86.66;101670.91;4897258;29;20201;-67
2023/09/15 03:26:35;;;;;;;6.80;6.17;;;;;;;11.32;86.67;101671.19;4897682;29;20625;-67
2023/09/15 03:29:02;;;;;;;5.47;5.37;;;;;;;11.33;86.62;101670.22;4897178;29;20287;-67
2023/09/15 03:31:28;;;;;;;5.23;4.83;;;;;;;11.33;86.81;101668.34;4897130;29;20852;-67
2023/09/15 03:33:55;;;;;;;6.73;6.23;;;;;;;11.32;86.63;101666.69;4898340;29;20189;-67
2023/09/15 03:36:22;;;;;;;5.83;5.63;;;;;;;11.32;86.83;101671.19;4896900;29;20192;-67
2023/09/15 03:38:48;;;;;;;6.00;5.70;;;;;;;11.29;86.80;101663.41;4897033;29;20201;-67
2023/09/15 03:41:15;;;;;;;6.10;5.67;;;;;;;11.26;86.78;101661.84;4898441;29;20211;-67
2023/09/15 03:43:41;;;;;;;6.73;6.10;;;;;;;11.25;86.67;101664.66;4898668;29;20670;-67
2023/09/15 03:46:08;;;;;;;5.17;5.07;;;;;;;11.22;86.75;101665.78;4896927;29;20196;-67
2023/09/15 03:48:36;;;;;;;6.40;5.80;;;;;;;11.21;86.83;101652.50;4896903;29;20553;-67
2023/09/15 03:51:02;;;;;;;5.37;5.17;;;;;;;11.22;86.94;101651.53;4898071;29;20228;-67
2023/09/15 03:53:29;;;;;;;5.43;5.23;;;;;;;11.19;86.66;101651.81;4897395;29;20200;-67
2023/09/15 03:55:55;;;;;;;5.93;5.63;;;;;;;11.18;86.97;101650.09;4898102;29;20188;-67
2023/09/15 03:58:22;;;;;;;6.30;5.97;;;;;;;11.17;86.89;101646.56;4896721;29;20229;-67
2023/09/15 04:00:49;;;;;;;6.03;5.40;;;;;;;11.16;87.08;101646.72;4896714;29;20208;-67
2023/09/15 04:03:15;;;;;;;5.57;5.40;;;;;;;11.14;87.11;101643.31;4898244;29;20224;-67
2023/09/15 04:05:42;;;;;;;4.33;4.33;;;;;;;11.14;87.05;101648.69;4897962;29;20197;-67
2023/09/15 04:08:08;;;;;;;7.77;5.17;;;;;;;11.12;87.10;101642.63;4898225;29;20193;-67
2023/09/15 04:10:35;;;;;;;5.53;5.03;;;;;;;11.10;87.12;101647.25;4897935;29;20224;-68
2023/09/15 04:13:02;;;;;;;6.07;5.77;;;;;;;11.07;87.02;101643.03;4896681;29;20200;-67
2023/09/15 04:15:29;;;;;;;6.13;5.73;;;;;;;11.05;87.23;101652.16;4897846;29;20199;-67
2023/09/15 04:17:55;;;;;;;5.23;5.03;;;;;;;11.05;86.93;101644.97;4898120;29;20725;-67
2023/09/15 04:20:23;;;;;;;6.67;6.10;;;;;;;11.05;87.08;101646.78;4896511;29;20272;-67
2023/09/15 04:23:11;;;;;;;5.57;5.13;;;;;;;11.02;87.20;101650.59;4896868;29;20191;-67
2023/09/15 04:25:38;;;;;;;5.83;5.50;;;;;;;11.00;87.17;101644.50;4896559;29;20677;-67
2023/09/15 04:28:04;;;;;;;4.80;4.70;;;;;;;10.99;87.06;101645.47;4897775;29;20200;-67
2023/09/15 04:30:31;;;;;;;6.13;5.87;;;;;;;10.96;87.44;101649.28;4896450;29;20639;-67
2023/09/15 04:32:58;;;;;;;5.57;5.37;;;;;;;10.95;87.20;101660.97;4896518;29;20588;-67
2023/09/15 04:35:27;;;;;;;5.23;5.03;;;;;;;10.95;87.24;101650.25;4896397;29;20256;-67
2023/09/15 04:37:54;;;;;;;11.17;6.23;;;;;;;10.96;87.23;101664.47;4896452;29;20253;-67
2023/09/15 04:40:21;;;;;;;5.77;5.57;;;;;;;10.95;87.17;101668.13;4896365;29;20591;-67
2023/09/15 04:42:47;;;;;;;14.00;6.73;;;;;;;10.91;87.47;101658.66;4898003;29;20196;-67
2023/09/15 04:45:14;;;;;;;6.30;5.83;;;;;;;10.88;87.25;101664.28;4896449;29;20197;-67
2023/09/15 04:47:41;;;;;;;5.00;4.90;;;;;;;10.88;87.48;101659.78;4896608;29;20197;-67
2023/09/15 04:50:15;;;;;;;6.67;6.33;;;;;;;10.88;87.31;101662.47;4900600;29;20216;-67
2023/09/15 04:52:42;;;;;;;10.83;6.20;;;;;;;10.86;87.43;101650.22;4899977;29;20669;-67
2023/09/15 04:55:08;;;;;;;7.70;6.90;;;;;;;10.85;87.39;101659.22;4899965;29;20253;-67
2023/09/15 04:57:35;;;;;;;6.67;5.97;;;;;;;10.84;87.36;101658.38;4900187;29;20201;-67
2023/09/15 05:00:12;;;;;;;7.17;6.40;;;;;;;10.83;87.48;101653.97;4900052;29;20213;-67
2023/09/15 05:02:44;;;;;;;7.77;7.17;;;;;;;10.84;87.52;101652.16;4900337;29;20552;-67
2023/09/15 05:05:12;;;;;;;7.03;6.03;;;;;;;10.85;87.46;101646.69;4899744;29;20196;-67
2023/09/15 05:07:39;;;;;;;6.07;5.83;;;;;;;10.85;87.72;101652.03;4899694;29;20207;-67
2023/09/15 05:10:07;;;;;;;10.97;7.30;;;;;;;10.84;87.70;101654.84;4900935;29;20370;-67
2023/09/15 05:12:34;;;;;;;6.13;5.83;;;;;;;10.83;87.80;101648.63;4901299;29;20199;-67
2023/09/15 05:15:03;;;;;;;7.23;6.57;;;;;;;10.83;87.59;101658.47;4899615;29;20252;-67
2023/09/15 05:17:31;;;;;;;9.37;7.27;;;;;;;10.82;87.86;101649.59;4899572;29;20299;-67
2023/09/15 05:19:58;;;;;;;7.43;6.70;;;;;;;10.79;87.82;101657.91;4899440;29;20217;-67
2023/09/15 05:22:25;;;;;;;6.80;6.33;;;;;;;10.80;87.71;101651.56;4899471;29;20193;-67
2023/09/15 05:24:52;;;;;;;6.63;6.30;;;;;;;10.79;87.84;101649.88;4899305;29;20220;-67
2023/09/15 05:27:22;;;;;;;10.30;6.87;;;;;;;10.78;87.82;101648.16;4899244;29;20684;-67
2023/09/15 05:29:48;;;;;;;8.43;6.50;;;;;;;10.80;87.86;101651.56;4899115;29;20227;-68
2023/09/15 05:32:15;;;;;;;6.13;5.77;;;;;;;10.82;87.92;101648.78;4899203;29;20200;-67
2023/09/15 05:34:41;;;;;;;7.17;6.50;;;;;;;10.84;87.88;101654.84;4900440;29;20205;-67
2023/09/15 05:37:08;;;;;;;8.13;7.43;;;;;;;10.86;88.05;101653.72;4900906;29;20188;-67
2023/09/15 05:39:34;;;;;;;7.60;6.83;;;;;;;10.88;87.94;101662.47;4899214;29;20200;-67
2023/09/15 05:42:01;;;;;;;6.30;5.83;;;;;;;10.91;87.94;101659.53;4898981;29;20201;-67
2023/09/15 05:44:27;;;;;;;7.00;6.60;;;;;;;10.93;87.98;101659.41;4900597;29;20237;-67
2023/09/15 05:46:53;;;;;;;7.70;6.83;;;;;;;10.96;87.82;101651.97;4900378;29;20244;-67
2023/09/15 05:49:20;;;;;;;7.87;7.23;;;;;;;11.00;88.09;101658.75;4900118;29;20193;-68
2023/09/15 05:51:46;;;;;;;9.57;6.93;;;;;;;11.05;88.03;101661.03;4900362;29;20216;-67
2023/09/15 05:54:13;;;;;;;6.70;6.13;;;;;;;11.10;87.93;101661.47;4900127;29;20204;-67
2023/09/15 05:56:40;;;;;;;7.33;6.77;;;;;;;11.15;87.78;101659.25;4900348;29;20196;-67
2023/09/15 05:59:07;;;;;;;6.83;6.33;;;;;;;11.23;88.62;101664.78;4899900;29;20193;-67
2023/09/15 06:01:33;;;;;;;10.27;6.37;;;;;;;11.29;88.23;101666.94;4899947;29;20343;-67
2023/09/15 06:04:00;;;;;;;7.50;6.73;;;;;;;11.35;88.37;101663.72;4899981;29;20216;-67
2023/09/15 06:06:27;;;;;;;6.90;6.50;;;;;;;11.41;88.56;101665.03;4900266;29;20559;-67
2023/09/15 06:08:53;;;;;;;9.60;6.50;;;;;;;11.50;88.47;101671.41;4900210;29;20228;-67
2023/09/15 06:11:20;;;;;;;17.43;6.63;;;;;;;11.56;88.34;101669.03;4899689;29;20227;-67
2023/09/15 06:13:47;;;;;;;9.73;7.33;;;;;;;11.61;88.52;101664.13;4899714;29;20201;-67
2023/09/15 06:16:13;;;;;;;7.90;7.30;;;;;;;11.69;88.31;101658.94;4899668;29;20205;-67
2023/09/15 06:18:40;;;;;;;9.30;6.57;;;;;;;11.78;88.28;101660.84;4900165;29;20549;-67
2023/09/15 06:21:06;;;;;;;18.23;7.93;;;;;;;11.85;88.42;101656.59;4899670;29;20626;-67
2023/09/15 06:23:33;;;;;;;9.83;6.70;;;;;;;11.92;88.35;101656.94;4899596;29;20367;-67
2023/09/15 06:25:59;;;;;;;10.93;7.03;;;;;;;11.99;88.11;101666.09;4899601;29;20196;-67
2023/09/15 06:28:25;;;;;;;6.23;5.83;;;;;;;12.04;87.94;101657.66;4899783;29;20196;-67
2023/09/15 06:30:52;;;;;;;6.03;5.70;;;;;;;12.10;87.89;101657.94;4899531;29;20577;-67
2023/09/15 06:33:19;;;;;;;5.93;5.37;;;;;;;12.17;87.76;101650.19;4899893;29;20199;-67
2023/09/15 06:35:45;;;;;;;6.43;6.03;;;;;;;12.23;87.77;101649.63;4899630;29;20189;-67
2023/09/15 06:38:12;;;;;;;9.33;6.50;;;;;;;12.26;87.72;101655.53;4899329;29;20197;-67
2023/09/15 06:40:38;;;;;;;7.90;6.77;;;;;;;12.36;87.47;101650.19;4899410;29;20264;-67
2023/09/15 06:43:07;;;;;;;10.73;6.17;;;;;;;12.43;87.40;101654.03;4899306;29;20673;-67
2023/09/15 06:45:34;;;;;;;7.70;6.43;;;;;;;12.53;86.91;101656.69;4899180;29;20197;-66
2023/09/15 06:48:01;;;;;;;13.70;6.63;;;;;;;12.58;87.17;101655.28;4899136;29;20193;-66
2023/09/15 06:50:28;;;;;;;6.77;6.27;;;;;;;12.66;86.60;101657.25;4899124;29;20624;-67
2023/09/15 06:52:54;;;;;;;7.10;6.50;;;;;;;12.76;86.11;101655.41;4899018;29;20201;-67
2023/09/15 06:55:21;;;;;;;8.93;6.17;;;;;;;12.80;85.52;101649.63;4899513;29;20192;-67
2023/09/15 06:57:47;;;;;;;6.87;6.47;;;;;;;12.86;84.98;101656.22;4899055;29;20185;-67
2023/09/15 07:00:14;;;;;;;6.53;6.20;;;;;;;12.96;84.28;101653.53;4898826;29;20296;-67
2023/09/15 07:02:41;;;;;;;7.60;6.17;;;;;;;13.06;84.31;101649.00;4899405;29;20189;-67
2023/09/15 07:05:08;;;;;;;6.47;5.90;;;;;;;13.13;83.19;101642.09;4899378;29;20276;-67
2023/09/15 07:07:34;;;;;;;13.87;7.10;;;;;;;13.17;82.98;101638.97;4898860;29;20188;-66
2023/09/15 07:10:01;;;;;;;5.77;5.50;;;;;;;13.24;82.94;101642.75;4898703;29;20587;-67
2023/09/15 07:12:27;;;;;;;5.73;5.37;;;;;;;13.31;82.89;101642.16;4898429;29;20215;-66
2023/09/15 07:14:54;;;;;;;8.70;5.80;;;;;;;13.34;82.69;101637.34;4899153;29;20200;-66
2023/09/15 07:17:20;;;;;;;5.90;5.53;;;;;;;13.40;83.03;101630.56;4898635;29;20189;-66
2023/09/15 07:19:47;;;;;;;6.33;4.90;;;;;;;13.48;82.62;101636.88;4898838;29;20300;-67
2023/09/15 07:22:13;;;;;;;6.43;5.67;;;;;;;13.51;82.53;101633.88;4898555;29;20200;-67
2023/09/15 07:24:41;;;;;;;5.40;5.03;;;;;;;13.63;82.48;101635.38;4898761;29;20199;-67
2023/09/15 07:27:10;;;;;;;6.07;5.77;;;;;;;13.70;82.13;101641.00;4898388;29;20228;-67
2023/09/15 07:29:38;;;;;;;8.40;6.00;;;;;;;13.78;82.07;101640.25;4898378;29;20257;-67
2023/09/15 07:32:05;;;;;;;6.60;6.33;;;;;;;13.85;82.07;101642.19;4898276;29;20231;-67
2023/09/15 07:34:31;;;;;;;7.77;7.20;;;;;;;13.90;81.73;101647.13;4898658;29;20188;-67
2023/09/15 07:36:59;;;;;;;8.10;6.23;;;;;;;14.01;81.98;101641.50;4898320;29;20197;-67
2023/09/15 07:39:26;;;;;;;6.77;5.50;;;;;;;14.14;81.51;101636.63;4898770;29;20184;-67
2023/09/15 07:41:53;;;;;;;5.90;5.30;;;;;;;14.23;81.16;101634.84;4898587;29;20192;-67
2023/09/15 07:44:19;;;;;;;6.90;6.30;;;;;;;14.29;81.17;101635.09;4898510;29;20180;-67
2023/09/15 07:46:46;;;;;;;8.43;6.23;;;;;;;14.35;80.82;101628.25;4898114;29;20193;-67
2023/09/15 07:49:13;;;;;;;6.67;6.10;;;;;;;14.36;79.58;101628.13;4898677;29;20197;-67
2023/09/15 07:51:40;;;;;;;7.10;6.13;;;;;;;14.35;79.49;101628.25;4898749;29;20629;-67
2023/09/15 07:54:06;;;;;;;9.20;6.37;;;;;;;14.44;79.30;101624.66;4898168;29;20192;-67
2023/09/15 07:56:33;;;;;;;6.10;5.90;;;;;;;14.52;79.60;101625.59;4898335;29;20379;-67
2023/09/15 07:59:00;;;;;;;13.67;5.93;;;;;;;14.57;79.50;101614.34;4898126;29;20228;-66
2023/09/15 08:01:26;;;;;;;5.30;5.00;;;;;;;14.66;79.55;101618.81;4897989;29;20212;-67
2023/09/15 08:03:53;;;;;;;7.17;5.23;;;;;;;14.75;79.35;101611.63;4898004;29;20207;-67
2023/09/15 08:06:20;;;;;;;4.97;4.77;;;;;;;14.83;79.17;101603.63;4898463;29;20188;-67
2023/09/15 08:08:46;;;;;;;5.40;5.20;;;;;;;14.95;79.22;101611.28;4898223;29;20196;-67
2023/09/15 08:11:13;;;;;;;5.70;5.33;;;;;;;15.07;79.11;101610.00;4897757;29;20216;-67
2023/09/15 08:13:39;;;;;;;8.33;5.77;;;;;;;15.21;78.49;101613.97;4898179;29;20181;-67
2023/09/15 08:16:06;;;;;;;7.93;4.50;;;;;;;15.32;78.22;101610.97;4898175;29;20183;-67
2023/09/15 08:18:32;;;;;;;6.10;5.60;;;;;;;15.50;77.47;101609.09;4897814;29;20193;-66
2023/09/15 08:20:59;;;;;;;5.33;4.77;;;;;;;15.51;77.30;101602.69;4898049;29;20573;-67
2023/09/15 08:23:25;;;;;;;14.80;5.37;;;;;;;15.65;76.61;101601.22;4899307;29;20189;-67
2023/09/15 08:25:52;;;;;;;10.53;5.83;;;;;;;15.71;76.05;101605.09;4902045;29;20185;-67
2023/09/15 08:28:19;;;;;;;4.70;4.23;;;;;;;15.83;75.96;101598.41;4901963;29;20275;-67
2023/09/15 08:30:49;;;;;;;5.90;5.13;;;;;;;15.90;75.78;101603.00;4901718;29;20220;-67
2023/09/15 08:33:16;;;;;;;15.43;4.47;;;;;;;15.97;75.78;101605.88;4902109;29;20222;-67
2023/09/15 08:35:43;;;;;;;5.10;4.70;;;;;;;16.14;75.86;101601.34;4901512;29;20611;-67
2023/09/15 08:38:12;;;;;;;7.80;5.50;;;;;;;16.28;74.85;101606.09;4901700;29;20532;-67
2023/09/15 08:40:49;;;;;;;6.37;6.07;;;;;;;16.34;74.59;101608.09;4901833;29;20539;-66
2023/09/15 08:43:16;;;;;;;5.60;5.33;;;;;;;16.39;73.48;101606.59;4901445;29;20193;-66
2023/09/15 08:45:45;;;;;;;5.43;5.00;;;;;;;16.55;73.77;101602.22;4901340;29;20231;-66
2023/09/15 08:48:17;;;;;;;5.17;5.03;;;;;;;16.60;74.16;101600.72;4901823;29;20668;-67
2023/09/15 08:50:45;;;;;;;4.93;4.90;;;;;;;16.71;74.20;101605.78;4901294;29;20626;-67
2023/09/15 08:53:13;;;;;;;5.20;4.80;;;;;;;16.83;73.84;101604.44;4901761;29;20188;-67
2023/09/15 08:55:40;;;;;;;11.10;5.27;;;;;;;17.00;71.99;101602.53;4901208;29;20192;-67
2023/09/15 08:58:07;;;;;;;5.67;5.43;;;;;;;17.05;72.90;101593.91;4901171;29;20200;-67
2023/09/15 09:00:34;;;;;;;6.00;5.20;;;;;;;17.11;72.52;101590.50;4901040;29;20251;-66
2023/09/15 09:03:03;;;;;;;5.23;5.10;;;;;;;17.24;71.55;101593.50;4901506;29;20193;-66
2023/09/15 09:05:31;;;;;;;4.73;4.53;;;;;;;17.27;71.16;101585.09;4901263;29;20276;-66
2023/09/15 09:07:59;;;;;;;5.07;4.77;;;;;;;17.35;71.61;101591.28;4900988;29;20200;-67
2023/09/15 09:10:26;;;;;;;4.97;4.60;;;;;;;17.45;71.65;101590.22;4900886;29;20270;-67
2023/09/15 09:12:53;;;;;;;4.20;4.00;;;;;;;17.49;71.95;101595.09;4900813;29;20216;-66
2023/09/15 09:15:21;;;;;;;16.53;4.23;;;;;;;17.49;68.79;101584.28;4900855;29;20200;-66
2023/09/15 09:17:47;;;;;;;4.63;4.17;;;;;;;17.59;69.12;101586.81;4900856;29;20185;-66
2023/09/15 09:20:27;;;;;;;4.00;3.40;;;;;;;17.72;68.69;101587.09;4900692;29;20224;-67
2023/09/15 09:22:54;;;;;;;7.00;4.53;;;;;;;17.87;67.50;101587.16;4900989;29;20177;-67
2023/09/15 09:25:26;;;;;;;5.73;5.10;;;;;;;17.96;66.97;101581.53;4900656;29;20199;-67
2023/09/15 09:27:55;;;;;;;6.33;3.17;;;;;;;17.97;66.34;101583.22;4901206;29;20177;-67
2023/09/15 09:30:29;;;;;;;3.97;3.87;;;;;;;18.02;66.19;101575.44;4901023;29;20218;-67
2023/09/15 09:32:56;;;;;;;3.20;3.07;;;;;;;18.09;65.80;101583.66;4901039;29;20244;-67
2023/09/15 09:35:23;;;;;;;3.60;3.30;;;;;;;18.20;62.75;101572.44;4900068;29;20272;-66
2023/09/15 09:37:52;;;;;;;3.47;3.37;;;;;;;18.17;63.35;101572.75;4900440;29;20665;-66
2023/09/15 09:40:21;;;;;;;5.17;3.47;;;;;;;18.21;64.19;101560.56;4900473;29;20220;-67
2023/09/15 09:42:49;;;;;;;3.47;3.20;;;;;;;18.30;61.03;101561.34;4900357;29;20282;-66
2023/09/15 09:45:16;;;;;;;3.70;3.40;;;;;;;18.39;61.35;101566.50;4900586;29;20201;-66
2023/09/15 09:47:43;;;;;;;4.03;3.80;;;;;;;18.45;63.07;101567.66;4900751;29;20200;-66
2023/09/15 09:50:11;;;;;;;4.07;3.87;;;;;;;18.50;62.07;101570.66;4900162;29;20216;-68
2023/09/15 09:52:39;;;;;;;4.10;3.87;;;;;;;18.50;63.44;101566.06;4900080;29;20212;-66
2023/09/15 09:55:08;;;;;;;4.40;3.80;;;;;;;18.66;63.18;101565.13;4900115;29;20636;-66
2023/09/15 09:57:37;;;;;;;8.80;4.10;;;;;;;18.66;63.59;101555.13;4900388;29;20331;-66
2023/09/15 10:00:09;;;;;;;4.50;4.13;;;;;;;18.73;62.92;101562.50;4900222;29;20629;-67
2023/09/15 10:02:37;;;;;;;4.77;3.40;;;;;;;18.79;63.10;101561.78;4900276;29;20257;-67
2023/09/15 10:05:04;;;;;;;4.10;3.80;;;;;;;18.91;63.08;101558.44;4899985;29;20188;-67
2023/09/15 10:07:30;;;;;;;3.57;3.30;;;;;;;18.94;63.42;101552.63;4899970;29;20204;-67
2023/09/15 10:09:58;;;;;;;5.67;4.13;;;;;;;18.98;62.39;101561.22;4899837;29;20224;-67
2023/09/15 10:12:25;;;;;;;3.73;3.53;;;;;;;18.95;63.35;101557.03;4900023;29;20607;-68
2023/09/15 10:14:52;;;;;;;3.07;3.07;;;;;;;18.98;62.47;101548.53;4899813;29;20218;-68
2023/09/15 10:17:19;;;;;;;5.40;3.67;;;;;;;19.05;64.48;101546.72;4899490;29;20199;-66
2023/09/15 10:19:47;;;;;;;6.13;4.43;;;;;;;19.10;61.17;101544.31;4899788;29;20276;-67
2023/09/15 10:22:16;;;;;;;3.73;3.53;;;;;;;19.12;61.28;101536.84;4899828;29;20204;-67
2023/09/15 10:24:47;;;;;;;5.00;4.07;;;;;;;19.18;63.37;101535.22;4899858;29;20203;-67
2023/09/15 10:27:14;;;;;;;3.53;3.33;;;;;;;19.26;61.39;101535.16;4899612;29;20185;-67
2023/09/15 10:29:45;;;;;;;3.53;3.37;;;;;;;19.28;62.71;101537.66;4899890;29;20295;-67
2023/09/15 10:32:19;;;;;;;3.50;3.20;;;;;;;19.36;63.75;101538.41;4900192;29;20205;-66
2023/09/15 10:34:48;;;;;;;8.37;3.10;;;;;;;19.53;61.52;101536.34;4899424;29;20196;-67
2023/09/15 10:37:15;;;;;;;6.13;3.37;;;;;;;19.66;59.60;101539.22;4899584;29;20193;-67
2023/09/15 10:39:42;;;;;;;3.77;3.10;;;;;;;19.74;58.71;101527.41;4900064;29;20227;-67
2023/09/15 10:42:10;;;;;;;4.07;3.80;;;;;;;19.75;59.81;101527.22;4899356;29;20210;-66
2023/09/15 10:44:37;;;;;;;3.20;3.20;;;;;;;19.81;60.12;101522.91;4899475;29;20200;-67
2023/09/15 10:47:14;;;;;;;3.97;3.77;;;;;;;19.81;60.70;101529.19;4898968;29;20197;-67
2023/09/15 10:49:52;;;;;;;3.80;3.60;;;;;;;19.91;60.17;101518.81;4899539;29;20617;-68
2023/09/15 10:52:33;;;;;;;3.70;3.13;;;;;;;20.04;58.56;101518.97;4899231;29;20200;-67
2023/09/15 10:55:00;;;;;;;4.53;3.33;;;;;;;20.16;58.39;101511.13;4899314;29;20202;-67
2023/09/15 10:57:27;;;;;;;3.37;3.17;;;;;;;20.11;56.57;101510.06;4899273;29;20197;-67
2023/09/15 10:59:56;;;;;;;3.00;3.00;;;;;;;20.06;56.89;101507.91;4899181;29;20772;-67
2023/09/15 11:02:25;;;;;;;3.90;3.53;;;;;;;20.08;56.48;101512.09;4898932;29;20189;-67
2023/09/15 11:04:52;;;;;;;4.07;3.90;;;;;;;20.10;56.95;101511.09;4899073;29;20621;-67
2023/09/15 11:07:19;;;;;;;4.30;4.13;;;;;;;20.14;56.86;101510.50;4898783;29;20224;-67
2023/09/15 11:09:46;;;;;;;3.50;3.40;;;;;;;20.18;56.64;101502.81;4898712;29;20208;-68
2023/09/15 11:12:13;;;;;;;3.47;3.37;;;;;;;20.17;56.59;101496.53;4898806;29;20234;-68
2023/09/15 11:14:40;;;;;;;4.00;3.70;;;;;;;20.16;57.06;101485.84;4898821;29;20716;-68
2023/09/15 11:17:07;;;;;;;4.77;3.87;;;;;;;20.07;58.20;101490.59;4899063;29;20558;-67
2023/09/15 11:19:36;;;;;;;3.23;3.13;;;;;;;20.06;57.83;101487.03;4898611;29;20800;-68
2023/09/15 11:22:03;;;;;;;3.77;3.63;;;;;;;20.02;57.34;101488.47;4898696;29;20207;-67
2023/09/15 11:24:33;;;;;;;4.17;3.97;;;;;;;20.08;56.80;101482.25;4898701;29;20193;-67
2023/09/15 11:27:00;;;;;;;3.23;3.13;;;;;;;20.08;57.33;101487.69;4899267;29;20180;-67